Hauptseite
METAR-TAF:

METAR-TAF

Flughäfen :

Flughafen Ko Samui

Ko Samui, Thailand

Breite: 09-32-52N, Länge: 100-03-44E, Höhe: 20 m

Beobachtung

Neuester Wetterbericht von vor 5 Stunden und 15 Minuten, um 15:00 UTC
Wind 3 kt aus Süd/Südost
Temperatur 28°C
Luftfeuchtigkeit 89%
Luftdruck 1013 hPa
Sichtweite 10 km oder mehr
Leicht bewölkt in der Höhe von 2000 ft

METAR: VTSM 201500Z 15003KT 9999 FEW020 28/26 Q1013 NOSIG

Zeit: 03:15 (20:15 UTC)

Prognose

Neuester Wetterbericht von vor 3 Stunden und 15 Minuten, um 17:00 UTC
Gültige Prognose vom 20 um 18 UTC bis 21 um 18 UTC
Wind 5 kt aus Südost
Sichtweite: 9000 m
Leicht bewölkt in der Höhe von 2000 ft
Zeitweise
vom 21 um 05 UTC bis 21 um 11 UTC
Sichtweite: 5000 m
Aufgelockert bewölkt in der Höhe von 1500 ft
Durchbrochene Bewölkung in der Höhe von 10000 ft
Regen

TAF: VTSM 201700Z 2018/2118 13005KT 9000 FEW020 TEMPO 2105/2111 5000 RA SCT015 BKN100

Wetterbeobachtungen und Prognosen von mehr als 4000 Flughäfen (METAR und TAF Bericht).

Die verfügbaren Stationen werden durch gelbe und rote Markierungen auf der Karte dargestellt.

Führen Sie die Maus auf sie, um den Namen der Station zu sehen.

Darauf klicken, um die Beobachtung von Wetterbeobachtungen und Prognosen zu sehen.

Um die Karte zu ändern : klicken Sie auf den grünen Tasten mit einem schwarzen Kreuz Zum Vergrößern, auf den grünen Button mit einem Gedankenstrich zu verkleinern, oder auf die grünen Pfeile für benachbarte Karten.


METAR-TAF: